sensor_id;sensor_type;location;lat;lon;timestamp;pressure;altitude;pressure_sealevel;temperature;humidity
20115;BME280;10218;42.874;25.320;2023-05-09T00:00:44;97576.94;;;13.66;100.00
20115;BME280;10218;42.874;25.320;2023-05-09T00:03:12;97579.69;;;13.58;100.00
20115;BME280;10218;42.874;25.320;2023-05-09T00:05:40;97582.03;;;13.61;100.00
20115;BME280;10218;42.874;25.320;2023-05-09T00:08:07;97575.56;;;13.70;100.00
20115;BME280;10218;42.874;25.320;2023-05-09T00:10:34;97576.59;;;13.84;100.00
20115;BME280;10218;42.874;25.320;2023-05-09T00:13:01;97574.25;;;13.66;100.00
20115;BME280;10218;42.874;25.320;2023-05-09T00:15:29;97580.09;;;13.47;100.00
20115;BME280;10218;42.874;25.320;2023-05-09T00:17:56;97571.31;;;13.76;100.00
20115;BME280;10218;42.874;25.320;2023-05-09T00:20:23;97568.97;;;13.73;100.00
20115;BME280;10218;42.874;25.320;2023-05-09T00:22:50;97571.25;;;13.98;100.00
20115;BME280;10218;42.874;25.320;2023-05-09T00:25:18;97576.44;;;13.85;100.00
20115;BME280;10218;42.874;25.320;2023-05-09T00:27:45;97575.91;;;13.67;100.00
20115;BME280;10218;42.874;25.320;2023-05-09T00:30:12;97568.72;;;13.82;100.00
20115;BME280;10218;42.874;25.320;2023-05-09T00:32:39;97571.19;;;14.06;100.00
20115;BME280;10218;42.874;25.320;2023-05-09T00:35:07;97561.78;;;13.88;100.00
20115;BME280;10218;42.874;25.320;2023-05-09T00:37:35;97569.13;;;13.94;100.00
20115;BME280;10218;42.874;25.320;2023-05-09T00:40:04;97564.69;;;13.86;100.00
20115;BME280;10218;42.874;25.320;2023-05-09T00:42:33;97569.31;;;13.55;100.00
20115;BME280;10218;42.874;25.320;2023-05-09T00:45:01;97574.03;;;13.53;100.00
20115;BME280;10218;42.874;25.320;2023-05-09T00:47:28;97584.03;;;13.96;100.00
20115;BME280;10218;42.874;25.320;2023-05-09T00:49:56;97579.13;;;13.62;100.00
20115;BME280;10218;42.874;25.320;2023-05-09T00:52:24;97576.41;;;13.70;100.00
20115;BME280;10218;42.874;25.320;2023-05-09T00:54:53;97578.03;;;13.71;100.00
20115;BME280;10218;42.874;25.320;2023-05-09T00:57:21;97578.16;;;13.78;100.00
20115;BME280;10218;42.874;25.320;2023-05-09T00:59:48;97574.09;;;13.82;100.00
20115;BME280;10218;42.874;25.320;2023-05-09T01:02:17;97573.47;;;13.95;100.00
20115;BME280;10218;42.874;25.320;2023-05-09T01:04:45;97587.28;;;13.54;100.00
20115;BME280;10218;42.874;25.320;2023-05-09T01:07:18;97575.75;;;13.83;100.00
20115;BME280;10218;42.874;25.320;2023-05-09T01:10:21;97578.72;;;13.88;100.00
20115;BME280;10218;42.874;25.320;2023-05-09T01:12:57;97571.03;;;13.70;100.00
20115;BME280;10218;42.874;25.320;2023-05-09T01:15:35;97577.84;;;13.58;100.00
20115;BME280;10218;42.874;25.320;2023-05-09T01:21:16;97587.91;;;13.56;100.00
20115;BME280;10218;42.874;25.320;2023-05-09T01:23:53;97586.69;;;13.44;100.00
20115;BME280;10218;42.874;25.320;2023-05-09T01:31:52;97587.41;;;13.38;100.00
20115;BME280;10218;42.874;25.320;2023-05-09T01:34:24;97588.59;;;13.36;100.00
20115;BME280;10218;42.874;25.320;2023-05-09T01:36:55;97586.44;;;13.54;100.00
20115;BME280;10218;42.874;25.320;2023-05-09T01:39:25;97590.69;;;12.95;100.00
20115;BME280;10218;42.874;25.320;2023-05-09T01:41:55;97589.47;;;12.97;100.00
20115;BME280;10218;42.874;25.320;2023-05-09T01:44:24;97593.37;;;13.25;100.00
20115;BME280;10218;42.874;25.320;2023-05-09T01:46:54;97592.50;;;13.48;100.00
20115;BME280;10218;42.874;25.320;2023-05-09T01:49:22;97586.03;;;13.19;100.00
20115;BME280;10218;42.874;25.320;2023-05-09T01:51:51;97584.28;;;13.49;100.00
20115;BME280;10218;42.874;25.320;2023-05-09T01:54:21;97588.09;;;13.55;100.00
20115;BME280;10218;42.874;25.320;2023-05-09T01:56:53;97584.25;;;13.35;100.00
20115;BME280;10218;42.874;25.320;2023-05-09T01:59:21;97583.00;;;13.45;100.00
20115;BME280;10218;42.874;25.320;2023-05-09T02:01:49;97585.19;;;13.19;100.00
20115;BME280;10218;42.874;25.320;2023-05-09T02:04:17;97580.97;;;13.24;100.00
20115;BME280;10218;42.874;25.320;2023-05-09T02:06:47;97584.34;;;13.18;100.00
20115;BME280;10218;42.874;25.320;2023-05-09T02:09:18;97590.94;;;12.77;100.00
20115;BME280;10218;42.874;25.320;2023-05-09T02:11:46;97586.84;;;12.89;100.00
20115;BME280;10218;42.874;25.320;2023-05-09T02:14:13;97585.44;;;13.01;100.00
20115;BME280;10218;42.874;25.320;2023-05-09T02:16:41;97582.72;;;12.78;100.00
20115;BME280;10218;42.874;25.320;2023-05-09T02:19:09;97589.94;;;12.78;100.00
20115;BME280;10218;42.874;25.320;2023-05-09T02:21:36;97589.84;;;12.94;100.00
20115;BME280;10218;42.874;25.320;2023-05-09T02:24:03;97592.59;;;12.78;100.00
20115;BME280;10218;42.874;25.320;2023-05-09T02:26:31;97588.41;;;13.06;100.00
20115;BME280;10218;42.874;25.320;2023-05-09T02:29:00;97586.63;;;12.99;100.00
20115;BME280;10218;42.874;25.320;2023-05-09T02:31:28;97586.50;;;12.92;100.00
20115;BME280;10218;42.874;25.320;2023-05-09T02:33:58;97589.75;;;13.10;100.00
20115;BME280;10218;42.874;25.320;2023-05-09T02:36:25;97589.12;;;12.69;100.00
20115;BME280;10218;42.874;25.320;2023-05-09T02:38:53;97594.44;;;12.77;100.00
20115;BME280;10218;42.874;25.320;2023-05-09T02:41:21;97603.97;;;13.11;100.00
20115;BME280;10218;42.874;25.320;2023-05-09T02:43:48;97598.81;;;12.70;100.00
20115;BME280;10218;42.874;25.320;2023-05-09T02:46:15;97610.06;;;13.05;100.00
20115;BME280;10218;42.874;25.320;2023-05-09T02:48:42;97601.34;;;12.72;100.00
20115;BME280;10218;42.874;25.320;2023-05-09T02:51:09;97606.19;;;12.76;100.00
20115;BME280;10218;42.874;25.320;2023-05-09T02:53:36;97607.94;;;12.92;100.00
20115;BME280;10218;42.874;25.320;2023-05-09T02:56:04;97606.00;;;12.78;100.00
20115;BME280;10218;42.874;25.320;2023-05-09T02:58:31;97615.22;;;13.06;100.00
20115;BME280;10218;42.874;25.320;2023-05-09T03:00:58;97606.97;;;12.85;100.00
20115;BME280;10218;42.874;25.320;2023-05-09T03:03:25;97613.88;;;13.18;100.00
20115;BME280;10218;42.874;25.320;2023-05-09T03:05:52;97599.91;;;13.23;100.00
20115;BME280;10218;42.874;25.320;2023-05-09T03:08:19;97612.88;;;13.11;100.00
20115;BME280;10218;42.874;25.320;2023-05-09T03:10:47;97612.03;;;13.19;100.00
20115;BME280;10218;42.874;25.320;2023-05-09T03:13:14;97608.56;;;13.02;100.00
20115;BME280;10218;42.874;25.320;2023-05-09T03:15:41;97619.91;;;13.20;100.00
20115;BME280;10218;42.874;25.320;2023-05-09T03:18:10;97621.19;;;12.94;100.00
20115;BME280;10218;42.874;25.320;2023-05-09T03:20:38;97619.94;;;13.12;100.00
20115;BME280;10218;42.874;25.320;2023-05-09T03:23:05;97624.44;;;13.20;100.00
20115;BME280;10218;42.874;25.320;2023-05-09T03:25:32;97624.31;;;12.74;100.00
20115;BME280;10218;42.874;25.320;2023-05-09T03:27:59;97630.25;;;12.93;100.00
20115;BME280;10218;42.874;25.320;2023-05-09T03:30:27;97633.06;;;12.99;100.00
20115;BME280;10218;42.874;25.320;2023-05-09T03:32:55;97636.88;;;12.74;100.00
20115;BME280;10218;42.874;25.320;2023-05-09T03:35:22;97638.19;;;12.70;100.00
20115;BME280;10218;42.874;25.320;2023-05-09T03:37:49;97639.97;;;12.94;100.00
20115;BME280;10218;42.874;25.320;2023-05-09T03:40:16;97635.91;;;12.98;100.00
20115;BME280;10218;42.874;25.320;2023-05-09T03:42:44;97644.81;;;12.90;100.00
20115;BME280;10218;42.874;25.320;2023-05-09T03:45:11;97644.75;;;13.14;100.00
20115;BME280;10218;42.874;25.320;2023-05-09T03:47:39;97643.38;;;13.18;100.00
20115;BME280;10218;42.874;25.320;2023-05-09T03:50:07;97642.25;;;13.05;100.00
20115;BME280;10218;42.874;25.320;2023-05-09T03:52:34;97654.22;;;12.94;100.00
20115;BME280;10218;42.874;25.320;2023-05-09T03:55:03;97646.63;;;12.98;100.00
20115;BME280;10218;42.874;25.320;2023-05-09T03:57:33;97657.06;;;12.93;100.00
20115;BME280;10218;42.874;25.320;2023-05-09T04:00:01;97655.91;;;12.87;100.00
20115;BME280;10218;42.874;25.320;2023-05-09T04:02:39;97663.09;;;12.86;100.00
20115;BME280;10218;42.874;25.320;2023-05-09T04:05:08;97654.28;;;12.78;100.00
20115;BME280;10218;42.874;25.320;2023-05-09T04:07:36;97657.75;;;12.86;100.00
20115;BME280;10218;42.874;25.320;2023-05-09T04:10:03;97657.50;;;12.65;100.00
20115;BME280;10218;42.874;25.320;2023-05-09T04:12:32;97661.87;;;12.97;100.00
20115;BME280;10218;42.874;25.320;2023-05-09T04:14:59;97668.94;;;12.90;100.00
20115;BME280;10218;42.874;25.320;2023-05-09T04:17:26;97666.63;;;12.87;100.00
20115;BME280;10218;42.874;25.320;2023-05-09T04:19:54;97675.56;;;12.71;100.00
20115;BME280;10218;42.874;25.320;2023-05-09T04:22:21;97670.53;;;12.76;100.00
20115;BME280;10218;42.874;25.320;2023-05-09T04:24:49;97667.69;;;12.70;100.00
20115;BME280;10218;42.874;25.320;2023-05-09T04:27:17;97669.66;;;12.84;100.00
20115;BME280;10218;42.874;25.320;2023-05-09T04:29:44;97666.16;;;12.83;100.00
20115;BME280;10218;42.874;25.320;2023-05-09T04:32:11;97669.94;;;12.58;100.00
20115;BME280;10218;42.874;25.320;2023-05-09T04:34:39;97672.56;;;12.74;100.00
20115;BME280;10218;42.874;25.320;2023-05-09T04:37:07;97668.78;;;12.44;100.00
20115;BME280;10218;42.874;25.320;2023-05-09T04:39:34;97677.44;;;12.63;100.00
20115;BME280;10218;42.874;25.320;2023-05-09T04:42:02;97667.78;;;12.54;100.00
20115;BME280;10218;42.874;25.320;2023-05-09T04:44:30;97672.19;;;12.77;100.00
20115;BME280;10218;42.874;25.320;2023-05-09T04:46:58;97682.13;;;12.69;100.00
20115;BME280;10218;42.874;25.320;2023-05-09T04:49:26;97677.72;;;12.76;100.00
20115;BME280;10218;42.874;25.320;2023-05-09T04:51:53;97679.34;;;12.93;100.00
20115;BME280;10218;42.874;25.320;2023-05-09T04:54:20;97686.19;;;12.96;100.00
20115;BME280;10218;42.874;25.320;2023-05-09T04:56:49;97689.03;;;13.02;100.00
20115;BME280;10218;42.874;25.320;2023-05-09T04:59:17;97684.87;;;12.92;100.00
20115;BME280;10218;42.874;25.320;2023-05-09T05:01:44;97684.44;;;12.72;100.00
20115;BME280;10218;42.874;25.320;2023-05-09T05:04:12;97684.78;;;12.77;100.00
20115;BME280;10218;42.874;25.320;2023-05-09T05:06:39;97682.66;;;12.64;100.00
20115;BME280;10218;42.874;25.320;2023-05-09T05:09:07;97686.78;;;12.75;100.00
20115;BME280;10218;42.874;25.320;2023-05-09T05:11:35;97684.63;;;12.70;100.00
20115;BME280;10218;42.874;25.320;2023-05-09T05:14:02;97686.88;;;12.42;100.00
20115;BME280;10218;42.874;25.320;2023-05-09T05:16:29;97678.78;;;12.67;100.00
20115;BME280;10218;42.874;25.320;2023-05-09T05:18:56;97691.44;;;12.26;100.00
20115;BME280;10218;42.874;25.320;2023-05-09T05:21:23;97693.94;;;12.43;100.00
20115;BME280;10218;42.874;25.320;2023-05-09T05:23:50;97701.91;;;12.60;100.00
20115;BME280;10218;42.874;25.320;2023-05-09T05:26:18;97695.56;;;12.44;100.00
20115;BME280;10218;42.874;25.320;2023-05-09T05:28:46;97698.63;;;12.25;100.00
20115;BME280;10218;42.874;25.320;2023-05-09T05:31:13;97697.47;;;12.20;100.00
20115;BME280;10218;42.874;25.320;2023-05-09T05:33:40;97693.28;;;12.17;100.00
20115;BME280;10218;42.874;25.320;2023-05-09T05:36:07;97701.16;;;12.19;100.00
20115;BME280;10218;42.874;25.320;2023-05-09T05:38:34;97695.94;;;12.33;100.00
20115;BME280;10218;42.874;25.320;2023-05-09T05:41:02;97706.53;;;12.19;100.00
20115;BME280;10218;42.874;25.320;2023-05-09T05:43:29;97696.94;;;12.49;100.00
20115;BME280;10218;42.874;25.320;2023-05-09T05:45:57;97711.69;;;12.28;100.00
20115;BME280;10218;42.874;25.320;2023-05-09T05:48:24;97700.94;;;12.44;100.00
20115;BME280;10218;42.874;25.320;2023-05-09T05:50:52;97697.78;;;12.49;100.00
20115;BME280;10218;42.874;25.320;2023-05-09T05:53:19;97705.50;;;12.28;100.00
20115;BME280;10218;42.874;25.320;2023-05-09T05:55:48;97699.28;;;12.35;100.00
20115;BME280;10218;42.874;25.320;2023-05-09T05:58:15;97705.34;;;12.21;100.00
20115;BME280;10218;42.874;25.320;2023-05-09T06:00:42;97702.44;;;12.47;100.00
20115;BME280;10218;42.874;25.320;2023-05-09T06:03:10;97702.94;;;12.59;100.00
20115;BME280;10218;42.874;25.320;2023-05-09T06:05:41;97712.88;;;12.26;100.00
20115;BME280;10218;42.874;25.320;2023-05-09T06:08:10;97702.59;;;12.46;100.00
20115;BME280;10218;42.874;25.320;2023-05-09T06:10:37;97714.31;;;12.61;100.00
20115;BME280;10218;42.874;25.320;2023-05-09T06:13:04;97707.00;;;12.22;100.00
20115;BME280;10218;42.874;25.320;2023-05-09T06:15:31;97719.72;;;12.20;100.00
20115;BME280;10218;42.874;25.320;2023-05-09T06:17:59;97720.75;;;12.27;100.00
20115;BME280;10218;42.874;25.320;2023-05-09T06:20:26;97707.66;;;12.24;100.00
20115;BME280;10218;42.874;25.320;2023-05-09T06:22:53;97695.09;;;12.41;100.00
20115;BME280;10218;42.874;25.320;2023-05-09T06:25:20;97709.16;;;12.43;100.00
20115;BME280;10218;42.874;25.320;2023-05-09T06:27:47;97720.06;;;12.25;100.00
20115;BME280;10218;42.874;25.320;2023-05-09T06:30:14;97716.97;;;12.61;100.00
20115;BME280;10218;42.874;25.320;2023-05-09T06:32:50;97710.34;;;12.24;100.00
20115;BME280;10218;42.874;25.320;2023-05-09T06:35:17;97721.31;;;12.70;100.00
20115;BME280;10218;42.874;25.320;2023-05-09T06:37:44;97709.91;;;12.84;100.00
20115;BME280;10218;42.874;25.320;2023-05-09T06:40:12;97719.88;;;12.35;100.00
20115;BME280;10218;42.874;25.320;2023-05-09T06:42:40;97720.06;;;12.33;100.00
20115;BME280;10218;42.874;25.320;2023-05-09T06:45:07;97712.28;;;12.63;100.00
20115;BME280;10218;42.874;25.320;2023-05-09T06:47:34;97710.84;;;12.44;100.00
20115;BME280;10218;42.874;25.320;2023-05-09T06:50:01;97717.72;;;12.38;100.00
20115;BME280;10218;42.874;25.320;2023-05-09T06:52:29;97713.00;;;12.49;100.00
20115;BME280;10218;42.874;25.320;2023-05-09T06:54:56;97718.53;;;12.31;100.00
20115;BME280;10218;42.874;25.320;2023-05-09T06:57:23;97714.22;;;12.14;100.00
20115;BME280;10218;42.874;25.320;2023-05-09T06:59:50;97722.94;;;12.08;100.00
20115;BME280;10218;42.874;25.320;2023-05-09T07:02:17;97718.38;;;12.32;100.00
20115;BME280;10218;42.874;25.320;2023-05-09T07:04:44;97708.94;;;12.69;100.00
20115;BME280;10218;42.874;25.320;2023-05-09T07:07:11;97719.38;;;12.39;100.00
20115;BME280;10218;42.874;25.320;2023-05-09T07:09:38;97716.53;;;12.25;100.00
20115;BME280;10218;42.874;25.320;2023-05-09T07:12:06;97728.78;;;12.03;100.00
20115;BME280;10218;42.874;25.320;2023-05-09T07:14:33;97727.59;;;12.06;100.00
20115;BME280;10218;42.874;25.320;2023-05-09T07:16:59;97729.09;;;12.40;100.00
20115;BME280;10218;42.874;25.320;2023-05-09T07:19:36;97721.91;;;12.25;100.00
20115;BME280;10218;42.874;25.320;2023-05-09T07:22:03;97716.22;;;12.28;100.00
20115;BME280;10218;42.874;25.320;2023-05-09T07:24:30;97724.94;;;12.14;100.00
20115;BME280;10218;42.874;25.320;2023-05-09T07:26:57;97732.94;;;12.30;100.00
20115;BME280;10218;42.874;25.320;2023-05-09T07:29:24;97727.41;;;12.48;100.00
20115;BME280;10218;42.874;25.320;2023-05-09T07:31:51;97721.03;;;12.40;100.00
20115;BME280;10218;42.874;25.320;2023-05-09T07:34:19;97727.06;;;12.34;100.00
20115;BME280;10218;42.874;25.320;2023-05-09T07:36:46;97731.44;;;12.19;100.00
20115;BME280;10218;42.874;25.320;2023-05-09T07:39:13;97738.66;;;12.19;100.00
20115;BME280;10218;42.874;25.320;2023-05-09T07:41:40;97733.78;;;12.47;100.00
20115;BME280;10218;42.874;25.320;2023-05-09T07:44:08;97737.31;;;12.39;100.00
20115;BME280;10218;42.874;25.320;2023-05-09T07:46:35;97743.84;;;11.96;100.00
20115;BME280;10218;42.874;25.320;2023-05-09T07:49:04;97747.84;;;11.76;100.00
20115;BME280;10218;42.874;25.320;2023-05-09T07:51:31;97747.53;;;12.11;100.00
20115;BME280;10218;42.874;25.320;2023-05-09T07:53:58;97743.84;;;12.12;100.00
20115;BME280;10218;42.874;25.320;2023-05-09T07:56:25;97746.19;;;12.07;100.00
20115;BME280;10218;42.874;25.320;2023-05-09T07:58:52;97747.38;;;11.88;100.00
20115;BME280;10218;42.874;25.320;2023-05-09T08:01:21;97754.91;;;11.93;100.00
20115;BME280;10218;42.874;25.320;2023-05-09T08:03:48;97749.94;;;11.64;100.00
20115;BME280;10218;42.874;25.320;2023-05-09T08:06:15;97756.06;;;11.98;100.00
20115;BME280;10218;42.874;25.320;2023-05-09T08:08:42;97758.88;;;11.73;100.00
20115;BME280;10218;42.874;25.320;2023-05-09T08:11:09;97756.50;;;11.70;100.00
20115;BME280;10218;42.874;25.320;2023-05-09T08:13:36;97759.22;;;11.78;100.00
20115;BME280;10218;42.874;25.320;2023-05-09T08:16:04;97769.03;;;11.61;100.00
20115;BME280;10218;42.874;25.320;2023-05-09T08:18:31;97758.38;;;11.77;100.00
20115;BME280;10218;42.874;25.320;2023-05-09T08:20:58;97765.56;;;11.77;100.00
20115;BME280;10218;42.874;25.320;2023-05-09T08:23:26;97763.81;;;11.59;100.00
20115;BME280;10218;42.874;25.320;2023-05-09T08:25:56;97758.38;;;11.85;100.00
20115;BME280;10218;42.874;25.320;2023-05-09T08:28:24;97753.41;;;11.40;100.00
20115;BME280;10218;42.874;25.320;2023-05-09T08:30:54;97762.28;;;11.41;100.00
20115;BME280;10218;42.874;25.320;2023-05-09T08:33:23;97768.19;;;11.61;100.00
20115;BME280;10218;42.874;25.320;2023-05-09T08:35:50;97749.78;;;11.66;100.00
20115;BME280;10218;42.874;25.320;2023-05-09T08:38:18;97761.41;;;11.82;100.00
20115;BME280;10218;42.874;25.320;2023-05-09T08:40:45;97764.47;;;11.45;100.00
20115;BME280;10218;42.874;25.320;2023-05-09T08:43:15;97765.09;;;11.39;100.00
20115;BME280;10218;42.874;25.320;2023-05-09T08:45:56;97768.37;;;11.17;100.00
20115;BME280;10218;42.874;25.320;2023-05-09T08:48:25;97775.47;;;11.34;100.00
20115;BME280;10218;42.874;25.320;2023-05-09T08:50:54;97773.47;;;11.36;100.00
20115;BME280;10218;42.874;25.320;2023-05-09T08:53:22;97767.25;;;11.78;100.00
20115;BME280;10218;42.874;25.320;2023-05-09T08:55:49;97770.78;;;11.86;100.00
20115;BME280;10218;42.874;25.320;2023-05-09T08:58:18;97761.56;;;11.73;100.00
20115;BME280;10218;42.874;25.320;2023-05-09T09:00:46;97775.06;;;11.71;100.00
20115;BME280;10218;42.874;25.320;2023-05-09T09:03:14;97769.13;;;11.43;100.00
20115;BME280;10218;42.874;25.320;2023-05-09T09:05:43;97771.69;;;11.61;100.00
20115;BME280;10218;42.874;25.320;2023-05-09T09:08:13;97770.31;;;11.41;100.00
20115;BME280;10218;42.874;25.320;2023-05-09T09:10:40;97765.69;;;11.67;100.00
20115;BME280;10218;42.874;25.320;2023-05-09T09:13:13;97778.25;;;11.67;100.00
20115;BME280;10218;42.874;25.320;2023-05-09T09:15:42;97777.13;;;11.77;100.00
20115;BME280;10218;42.874;25.320;2023-05-09T09:18:15;97781.16;;;11.81;100.00
20115;BME280;10218;42.874;25.320;2023-05-09T09:20:52;97782.00;;;12.06;100.00
20115;BME280;10218;42.874;25.320;2023-05-09T09:23:24;97775.13;;;11.87;100.00
20115;BME280;10218;42.874;25.320;2023-05-09T09:25:59;97786.16;;;11.76;100.00
20115;BME280;10218;42.874;25.320;2023-05-09T09:28:27;97783.69;;;12.07;100.00
20115;BME280;10218;42.874;25.320;2023-05-09T09:30:55;97780.16;;;12.07;100.00
20115;BME280;10218;42.874;25.320;2023-05-09T09:33:24;97780.50;;;12.12;100.00
20115;BME280;10218;42.874;25.320;2023-05-09T09:35:53;97784.00;;;11.88;100.00
20115;BME280;10218;42.874;25.320;2023-05-09T09:38:22;97782.28;;;11.79;100.00
20115;BME280;10218;42.874;25.320;2023-05-09T09:40:57;97785.66;;;11.73;100.00
20115;BME280;10218;42.874;25.320;2023-05-09T09:43:29;97784.84;;;11.88;100.00
20115;BME280;10218;42.874;25.320;2023-05-09T09:46:00;97791.00;;;11.73;100.00
20115;BME280;10218;42.874;25.320;2023-05-09T09:48:32;97783.47;;;11.84;100.00
20115;BME280;10218;42.874;25.320;2023-05-09T09:51:07;97778.47;;;11.81;100.00
20115;BME280;10218;42.874;25.320;2023-05-09T09:53:41;97789.25;;;11.64;100.00
20115;BME280;10218;42.874;25.320;2023-05-09T09:56:08;97789.22;;;12.14;100.00
20115;BME280;10218;42.874;25.320;2023-05-09T09:58:39;97784.84;;;11.88;100.00
20115;BME280;10218;42.874;25.320;2023-05-09T10:01:08;97793.38;;;12.00;100.00
20115;BME280;10218;42.874;25.320;2023-05-09T10:03:40;97788.06;;;12.08;100.00
20115;BME280;10218;42.874;25.320;2023-05-09T10:06:15;97782.31;;;11.87;100.00
20115;BME280;10218;42.874;25.320;2023-05-09T10:08:43;97784.19;;;12.03;100.00
20115;BME280;10218;42.874;25.320;2023-05-09T10:11:14;97786.56;;;12.14;100.00
20115;BME280;10218;42.874;25.320;2023-05-09T10:13:42;97786.38;;;12.48;100.00
20115;BME280;10218;42.874;25.320;2023-05-09T10:16:10;97780.81;;;12.00;100.00
20115;BME280;10218;42.874;25.320;2023-05-09T10:18:38;97773.81;;;12.08;100.00
20115;BME280;10218;42.874;25.320;2023-05-09T10:21:10;97785.66;;;11.73;100.00
20115;BME280;10218;42.874;25.320;2023-05-09T10:23:42;97786.22;;;12.09;100.00
20115;BME280;10218;42.874;25.320;2023-05-09T10:26:25;97791.72;;;12.48;100.00
20115;BME280;10218;42.874;25.320;2023-05-09T10:28:55;97785.34;;;12.40;100.00
20115;BME280;10218;42.874;25.320;2023-05-09T10:31:27;97792.38;;;12.25;100.00
20115;BME280;10218;42.874;25.320;2023-05-09T10:33:55;97791.88;;;11.97;100.00
20115;BME280;10218;42.874;25.320;2023-05-09T10:36:23;97788.72;;;12.42;100.00
20115;BME280;10218;42.874;25.320;2023-05-09T10:38:53;97791.19;;;12.60;100.00
20115;BME280;10218;42.874;25.320;2023-05-09T10:41:21;97784.19;;;12.59;100.00
20115;BME280;10218;42.874;25.320;2023-05-09T10:43:50;97790.03;;;12.63;100.00
20115;BME280;10218;42.874;25.320;2023-05-09T10:46:17;97790.22;;;12.21;100.00
20115;BME280;10218;42.874;25.320;2023-05-09T10:48:46;97792.22;;;12.27;100.00
20115;BME280;10218;42.874;25.320;2023-05-09T10:51:14;97800.44;;;12.25;100.00
20115;BME280;10218;42.874;25.320;2023-05-09T10:53:44;97805.44;;;12.44;100.00
20115;BME280;10218;42.874;25.320;2023-05-09T10:56:41;97798.59;;;12.42;100.00
20115;BME280;10218;42.874;25.320;2023-05-09T10:59:32;97801.44;;;12.57;100.00
20115;BME280;10218;42.874;25.320;2023-05-09T11:02:00;97785.34;;;12.57;100.00
20115;BME280;10218;42.874;25.320;2023-05-09T11:04:30;97791.41;;;12.42;100.00
20115;BME280;10218;42.874;25.320;2023-05-09T11:06:59;97793.41;;;12.32;100.00
20115;BME280;10218;42.874;25.320;2023-05-09T11:09:34;97791.72;;;12.48;100.00
20115;BME280;10218;42.874;25.320;2023-05-09T11:14:51;97796.75;;;12.51;100.00
20115;BME280;10218;42.874;25.320;2023-05-09T11:22:27;97798.75;;;12.57;100.00
20115;BME280;10218;42.874;25.320;2023-05-09T11:25:08;97795.06;;;12.50;100.00
20115;BME280;10218;42.874;25.320;2023-05-09T11:27:40;97792.22;;;12.35;100.00
20115;BME280;10218;42.874;25.320;2023-05-09T11:30:11;97796.91;;;12.57;100.00
20115;BME280;10218;42.874;25.320;2023-05-09T11:32:49;97773.41;;;12.83;100.00
20115;BME280;10218;42.874;25.320;2023-05-09T11:35:19;97794.03;;;12.83;100.00
20115;BME280;10218;42.874;25.320;2023-05-09T11:38:01;97802.94;;;12.67;100.00
20115;BME280;10218;42.874;25.320;2023-05-09T11:40:30;97793.69;;;12.70;100.00
20115;BME280;10218;42.874;25.320;2023-05-09T11:42:58;97784.94;;;13.00;100.00
20115;BME280;10218;42.874;25.320;2023-05-09T11:45:31;97789.25;;;13.17;100.00
20115;BME280;10218;42.874;25.320;2023-05-09T11:47:59;97788.94;;;13.04;100.00
20115;BME280;10218;42.874;25.320;2023-05-09T11:50:27;97789.94;;;13.11;100.00
20115;BME280;10218;42.874;25.320;2023-05-09T11:52:54;97786.31;;;12.88;100.00
20115;BME280;10218;42.874;25.320;2023-05-09T11:55:22;97798.94;;;13.26;100.00
20115;BME280;10218;42.874;25.320;2023-05-09T11:57:52;97795.88;;;12.82;100.00
20115;BME280;10218;42.874;25.320;2023-05-09T12:00:22;97784.41;;;13.13;100.00
20115;BME280;10218;42.874;25.320;2023-05-09T12:02:50;97796.16;;;13.04;100.00
20115;BME280;10218;42.874;25.320;2023-05-09T12:05:19;97790.63;;;13.05;100.00
20115;BME280;10218;42.874;25.320;2023-05-09T12:07:47;97796.00;;;13.05;100.00
20115;BME280;10218;42.874;25.320;2023-05-09T12:10:18;97791.16;;;12.93;100.00
20115;BME280;10218;42.874;25.320;2023-05-09T12:12:48;97794.41;;;13.27;100.00
20115;BME280;10218;42.874;25.320;2023-05-09T12:15:16;97783.06;;;13.09;100.00
20115;BME280;10218;42.874;25.320;2023-05-09T12:17:44;97773.78;;;13.27;100.00
20115;BME280;10218;42.874;25.320;2023-05-09T12:20:12;97781.75;;;12.97;100.00
20115;BME280;10218;42.874;25.320;2023-05-09T12:22:42;97777.47;;;13.35;100.00
20115;BME280;10218;42.874;25.320;2023-05-09T12:25:10;97773.00;;;13.19;100.00
20115;BME280;10218;42.874;25.320;2023-05-09T12:27:38;97770.72;;;13.39;100.00
20115;BME280;10218;42.874;25.320;2023-05-09T12:30:07;97763.28;;;13.02;100.00
20115;BME280;10218;42.874;25.320;2023-05-09T12:32:36;97774.41;;;12.82;100.00
20115;BME280;10218;42.874;25.320;2023-05-09T12:35:07;97765.69;;;12.89;100.00
20115;BME280;10218;42.874;25.320;2023-05-09T12:37:35;97770.50;;;13.09;100.00
20115;BME280;10218;42.874;25.320;2023-05-09T12:40:10;97757.09;;;13.01;100.00
20115;BME280;10218;42.874;25.320;2023-05-09T12:42:44;97759.16;;;12.83;100.00
20115;BME280;10218;42.874;25.320;2023-05-09T12:45:12;97762.25;;;13.19;100.00
20115;BME280;10218;42.874;25.320;2023-05-09T12:47:39;97759.38;;;13.28;100.00
20115;BME280;10218;42.874;25.320;2023-05-09T12:50:10;97755.13;;;12.95;100.00
20115;BME280;10218;42.874;25.320;2023-05-09T12:52:41;97753.06;;;13.05;100.00
20115;BME280;10218;42.874;25.320;2023-05-09T12:55:20;97754.69;;;13.22;100.00
20115;BME280;10218;42.874;25.320;2023-05-09T12:58:02;97755.06;;;13.11;100.00
20115;BME280;10218;42.874;25.320;2023-05-09T13:00:45;97749.88;;;13.10;100.00
20115;BME280;10218;42.874;25.320;2023-05-09T13:03:22;97743.03;;;12.99;100.00
20115;BME280;10218;42.874;25.320;2023-05-09T13:06:01;97743.66;;;13.01;100.00